createdAt,value
2017-06-23T00:01:31.667Z,101527.27
2017-06-23T00:03:57.948Z,101526.62
2017-06-23T00:06:24.186Z,101518.48
2017-06-23T00:08:50.610Z,101517.03
2017-06-23T00:11:16.847Z,101521.63
2017-06-23T00:13:43.091Z,101522.57
2017-06-23T00:17:36.277Z,101517.44
2017-06-23T00:20:02.547Z,101516.11
2017-06-23T00:22:28.804Z,101513.44
2017-06-23T00:24:55.207Z,101515.28
2017-06-23T00:27:21.450Z,101522.64
2017-06-23T00:29:47.728Z,101520.36
2017-06-23T00:32:14.992Z,101514.23
2017-06-23T00:34:41.251Z,101518.63
2017-06-23T00:37:07.509Z,101516.96
2017-06-23T00:39:33.927Z,101515.85
2017-06-23T00:42:00.176Z,101510.94
2017-06-23T00:44:26.423Z,101509.32
2017-06-23T00:46:52.828Z,101509.72
2017-06-23T00:49:19.075Z,101506.32
2017-06-23T00:51:45.327Z,101513.95
2017-06-23T00:54:11.692Z,101512.80
2017-06-23T00:56:37.936Z,101511.17
2017-06-23T00:59:04.178Z,101506.74
2017-06-23T01:01:30.603Z,101509.73
2017-06-23T01:03:56.858Z,101505.28
2017-06-23T01:06:23.134Z,101501.01
2017-06-23T01:08:49.535Z,101498.77
2017-06-23T01:11:15.804Z,101504.81
2017-06-23T01:13:42.078Z,101509.18
2017-06-23T01:17:35.952Z,101507.53
2017-06-23T01:20:02.224Z,101510.75
2017-06-23T01:22:28.479Z,101516.55
2017-06-23T01:24:54.888Z,101506.34
2017-06-23T01:27:21.122Z,101500.41
2017-06-23T01:29:47.383Z,101503.23
2017-06-23T01:32:13.772Z,101507.39
2017-06-23T01:34:40.770Z,101503.12
2017-06-23T01:37:07.020Z,101510.82
2017-06-23T01:39:33.442Z,101505.47
2017-06-23T01:41:59.773Z,101506.02
2017-06-23T01:44:26.061Z,101509.44
2017-06-23T01:46:52.487Z,101506.39
2017-06-23T01:49:18.755Z,101504.70
2017-06-23T01:51:45.028Z,101505.06
2017-06-23T01:54:11.444Z,101500.75
2017-06-23T01:56:37.691Z,101504.58
2017-06-23T01:59:03.931Z,101505.70
2017-06-23T02:01:30.332Z,101498.33
2017-06-23T02:03:56.593Z,101498.31
2017-06-23T02:06:22.847Z,101490.89
2017-06-23T02:08:49.274Z,101490.95
2017-06-23T02:11:15.507Z,101488.13
2017-06-23T02:13:41.771Z,101497.08
2017-06-23T02:17:36.561Z,101489.71
2017-06-23T02:20:02.803Z,101493.05
2017-06-23T02:22:29.042Z,101487.89
2017-06-23T02:24:55.433Z,101488.73
2017-06-23T02:27:21.692Z,101487.34
2017-06-23T02:29:47.931Z,101493.75
2017-06-23T02:32:14.526Z,101493.98
2017-06-23T02:34:40.778Z,101489.16
2017-06-23T02:37:07.520Z,101483.69
2017-06-23T02:39:34.118Z,101481.55
2017-06-23T02:42:00.372Z,101485.00
2017-06-23T02:44:26.639Z,101493.75
2017-06-23T02:46:53.050Z,101485.15
2017-06-23T02:49:19.300Z,101487.63
2017-06-23T02:51:45.548Z,101487.23
2017-06-23T02:54:11.932Z,101492.50
2017-06-23T02:56:38.182Z,101492.23
2017-06-23T02:59:04.446Z,101495.31
2017-06-23T03:01:30.811Z,101498.13
2017-06-23T03:03:57.090Z,101502.28
2017-06-23T03:06:23.337Z,101504.41
2017-06-23T03:08:49.831Z,101502.86
2017-06-23T03:11:16.097Z,101501.90
2017-06-23T03:13:42.335Z,101508.97
2017-06-23T03:17:36.514Z,101513.62
2017-06-23T03:20:02.783Z,101515.66
2017-06-23T03:22:29.024Z,101507.12
2017-06-23T03:24:55.424Z,101506.61
2017-06-23T03:27:21.654Z,101507.72
2017-06-23T03:29:47.889Z,101514.28
2017-06-23T03:32:14.259Z,101513.97
2017-06-23T03:34:40.515Z,101522.67
2017-06-23T03:37:06.782Z,101519.53
2017-06-23T03:39:34.621Z,101526.80
2017-06-23T03:42:00.863Z,101533.58
2017-06-23T03:44:27.126Z,101533.30
2017-06-23T03:46:53.540Z,101531.55
2017-06-23T03:49:19.807Z,101533.06
2017-06-23T03:51:46.060Z,101528.84
2017-06-23T03:54:12.458Z,101527.55
2017-06-23T03:56:38.712Z,101531.15
2017-06-23T03:59:04.959Z,101528.10
2017-06-23T04:01:31.387Z,101532.95
2017-06-23T04:03:57.620Z,101535.42
2017-06-23T04:06:23.872Z,101533.69
2017-06-23T04:08:50.336Z,101543.03
2017-06-23T04:11:16.584Z,101544.49
2017-06-23T04:13:42.882Z,101537.23
2017-06-23T04:17:36.188Z,101535.80
2017-06-23T04:20:02.443Z,101542.36
2017-06-23T04:22:28.704Z,101549.69
2017-06-23T04:24:55.092Z,101550.56
2017-06-23T04:27:21.348Z,101551.75
2017-06-23T04:29:47.599Z,101545.64
2017-06-23T04:32:13.966Z,101548.12
2017-06-23T04:34:40.220Z,101545.89
2017-06-23T04:37:06.489Z,101545.39
2017-06-23T04:39:32.950Z,101546.34
2017-06-23T04:42:00.315Z,101545.83
2017-06-23T04:44:26.583Z,101548.16
2017-06-23T04:46:52.975Z,101545.69
2017-06-23T04:49:19.227Z,101548.87
2017-06-23T04:51:45.472Z,101545.32
2017-06-23T04:54:11.836Z,101554.69
2017-06-23T04:56:38.115Z,101553.55
2017-06-23T04:59:04.354Z,101557.54
2017-06-23T05:01:30.761Z,101558.06
2017-06-23T05:03:58.019Z,101567.38
2017-06-23T05:06:24.472Z,101568.28
2017-06-23T05:08:50.938Z,101564.05
2017-06-23T05:11:17.212Z,101562.25
2017-06-23T05:13:43.533Z,101560.17
2017-06-23T05:17:35.599Z,101562.87
2017-06-23T05:20:01.884Z,101564.54
2017-06-23T05:22:28.142Z,101564.52
2017-06-23T05:24:54.535Z,101566.64
2017-06-23T05:27:20.802Z,101575.58
2017-06-23T05:29:47.112Z,101571.18
2017-06-23T05:32:13.484Z,101576.84
2017-06-23T05:34:39.773Z,101577.08
2017-06-23T05:37:06.014Z,101577.52
2017-06-23T05:39:32.414Z,101581.85
2017-06-23T05:41:59.727Z,101584.54
2017-06-23T05:44:25.993Z,101585.34
2017-06-23T05:46:59.688Z,101582.25
2017-06-23T05:49:25.934Z,101589.34
2017-06-23T05:51:52.172Z,101588.73
2017-06-23T05:54:18.583Z,101592.95
2017-06-23T05:56:44.814Z,101593.09
2017-06-23T05:59:11.107Z,101600.32
2017-06-23T06:01:37.486Z,101604.19
2017-06-23T06:04:03.744Z,101599.62
2017-06-23T06:06:30.001Z,101603.03
2017-06-23T06:08:56.375Z,101611.37
2017-06-23T06:11:22.614Z,101603.95
2017-06-23T06:13:48.871Z,101604.34
2017-06-23T06:17:36.370Z,101607.17
2017-06-23T06:20:02.634Z,101610.91
2017-06-23T06:22:28.881Z,101609.52
2017-06-23T06:24:55.283Z,101607.68
2017-06-23T06:27:21.620Z,101605.12
2017-06-23T06:29:47.868Z,101611.51
2017-06-23T06:32:14.261Z,101610.51
2017-06-23T06:34:40.511Z,101612.10
2017-06-23T06:37:06.750Z,101615.72
2017-06-23T06:39:33.138Z,101614.82
2017-06-23T06:42:01.194Z,101610.84
2017-06-23T06:44:27.480Z,101610.21
2017-06-23T06:46:53.947Z,101606.20
2017-06-23T06:49:20.256Z,101614.05
2017-06-23T06:51:46.488Z,101613.70
2017-06-23T06:54:12.862Z,101619.84
2017-06-23T06:56:39.121Z,101616.53
2017-06-23T06:59:05.381Z,101617.97
2017-06-23T07:01:31.775Z,101625.18
2017-06-23T07:03:58.031Z,101625.49
2017-06-23T07:06:24.294Z,101628.09
2017-06-23T07:08:50.688Z,101633.98
2017-06-23T07:11:16.951Z,101632.41
2017-06-23T07:13:43.219Z,101632.47
2017-06-23T07:17:35.331Z,101637.86
2017-06-23T07:20:01.575Z,101642.14
2017-06-23T07:22:27.840Z,101639.27
2017-06-23T07:24:54.366Z,101642.09
2017-06-23T07:27:20.611Z,101642.98
2017-06-23T07:29:46.882Z,101648.38
2017-06-23T07:32:13.260Z,101650.78
2017-06-23T07:34:39.498Z,101656.50
2017-06-23T07:37:05.743Z,101657.22
2017-06-23T07:39:32.122Z,101660.87
2017-06-23T07:41:58.427Z,101662.54
2017-06-23T07:44:26.063Z,101656.97
2017-06-23T07:46:52.488Z,101660.09
2017-06-23T07:49:18.778Z,101668.47
2017-06-23T07:51:45.012Z,101674.98
2017-06-23T07:54:11.408Z,101685.11
2017-06-23T07:56:37.646Z,101683.73
2017-06-23T07:59:03.900Z,101670.52
2017-06-23T08:01:30.304Z,101672.62
2017-06-23T08:03:56.553Z,101666.52
2017-06-23T08:06:23.586Z,101671.34
2017-06-23T08:08:50.721Z,101666.08
2017-06-23T08:11:16.967Z,101672.69
2017-06-23T08:13:43.959Z,101671.70
2017-06-23T08:17:35.932Z,101675.91
2017-06-23T08:20:02.202Z,101669.31
2017-06-23T08:22:28.474Z,101672.18
2017-06-23T08:24:54.883Z,101674.48
2017-06-23T08:27:21.150Z,101666.45
2017-06-23T08:29:47.384Z,101673.17
2017-06-23T08:32:13.771Z,101684.73
2017-06-23T08:34:40.031Z,101689.83
2017-06-23T08:37:06.312Z,101688.21
2017-06-23T08:39:32.715Z,101694.44
2017-06-23T08:41:58.971Z,101696.83
2017-06-23T08:44:27.959Z,101694.56
2017-06-23T08:46:54.319Z,101689.41
2017-06-23T08:49:20.583Z,101687.80
2017-06-23T08:51:46.847Z,101689.39
2017-06-23T08:54:13.324Z,101694.16
2017-06-23T08:56:39.582Z,101698.66
2017-06-23T08:59:05.855Z,101700.12
2017-06-23T09:01:32.237Z,101700.93
2017-06-23T09:03:59.255Z,101693.30
2017-06-23T09:06:25.533Z,101696.39
2017-06-23T09:08:51.929Z,101701.23
2017-06-23T09:11:18.233Z,101697.40
2017-06-23T09:13:44.538Z,101701.31
2017-06-23T09:17:35.603Z,101705.67
2017-06-23T09:20:01.872Z,101705.38
2017-06-23T09:22:28.141Z,101705.83
2017-06-23T09:24:54.552Z,101714.59
2017-06-23T09:27:20.807Z,101712.16
2017-06-23T09:29:47.059Z,101716.80
2017-06-23T09:32:13.483Z,101711.70
2017-06-23T09:34:39.715Z,101719.38
2017-06-23T09:37:05.987Z,101731.05
2017-06-23T09:39:32.397Z,101720.38
2017-06-23T09:41:58.638Z,101722.20
2017-06-23T09:44:24.906Z,101721.70
2017-06-23T09:46:51.575Z,101730.78
2017-06-23T09:49:17.826Z,101726.10
2017-06-23T09:51:44.108Z,101725.79
2017-06-23T09:54:10.568Z,101713.95
2017-06-23T09:56:36.814Z,101717.77
2017-06-23T09:59:03.103Z,101723.05
2017-06-23T10:01:29.554Z,101719.73
2017-06-23T10:03:56.586Z,101707.16
2017-06-23T10:06:22.829Z,101705.70
2017-06-23T10:08:49.218Z,101710.16
2017-06-23T10:11:15.471Z,101700.66
2017-06-23T10:13:41.717Z,101712.16
2017-06-23T10:17:35.257Z,101714.27
2017-06-23T10:20:01.593Z,101711.42
2017-06-23T10:22:27.854Z,101707.39
2017-06-23T10:24:54.227Z,101707.41
2017-06-23T10:27:20.527Z,101706.83
2017-06-23T10:29:46.759Z,101707.46
2017-06-23T10:32:13.176Z,101705.09
2017-06-23T10:34:39.419Z,101713.91
2017-06-23T10:37:05.666Z,101705.25
2017-06-23T10:39:32.036Z,101716.52
2017-06-23T10:41:58.339Z,101711.98
2017-06-23T10:44:24.584Z,101709.05
2017-06-23T10:46:54.415Z,101706.92
2017-06-23T10:49:20.834Z,101709.72
2017-06-23T10:51:47.128Z,101716.44
2017-06-23T10:54:14.451Z,101719.82
2017-06-23T10:56:40.682Z,101717.69
2017-06-23T10:59:06.918Z,101712.28
2017-06-23T11:01:34.841Z,101712.02
2017-06-23T11:04:02.605Z,101710.69
2017-06-23T11:06:30.207Z,101708.63
2017-06-23T11:08:56.635Z,101722.81
2017-06-23T11:11:22.864Z,101726.88
2017-06-23T11:13:49.099Z,101721.50
2017-06-23T11:17:36.430Z,101717.80
2017-06-23T11:20:02.706Z,101718.86
2017-06-23T11:22:28.961Z,101731.73
2017-06-23T11:24:55.369Z,101726.20
2017-06-23T11:27:21.592Z,101713.02
2017-06-23T11:29:47.835Z,101716.38
2017-06-23T11:32:14.232Z,101718.25
2017-06-23T11:34:40.472Z,101714.08
2017-06-23T11:37:06.751Z,101712.88
2017-06-23T11:39:33.112Z,101711.42
2017-06-23T11:41:59.366Z,101710.66
2017-06-23T11:44:25.614Z,101707.09
2017-06-23T11:46:52.356Z,101710.37
2017-06-23T11:49:18.681Z,101706.97
2017-06-23T11:51:44.933Z,101708.09
2017-06-23T11:54:11.317Z,101710.27
2017-06-23T11:56:37.557Z,101708.39
2017-06-23T11:59:03.820Z,101703.03
2017-06-23T12:01:30.218Z,101709.23
2017-06-23T12:03:56.474Z,101708.94
2017-06-23T12:06:22.725Z,101721.94
2017-06-23T12:08:49.123Z,101714.54
2017-06-23T12:11:15.362Z,101722.48
2017-06-23T12:13:42.359Z,101719.42
2017-06-23T12:17:36.190Z,101712.77
2017-06-23T12:20:02.456Z,101722.30
2017-06-23T12:22:28.718Z,101719.03
2017-06-23T12:24:55.112Z,101713.73
2017-06-23T12:27:21.356Z,101729.03
2017-06-23T12:29:47.600Z,101737.12
2017-06-23T12:32:13.988Z,101731.24
2017-06-23T12:34:40.264Z,101723.66
2017-06-23T12:37:06.524Z,101750.09
2017-06-23T12:39:32.931Z,101720.19
2017-06-23T12:41:59.162Z,101733.55
2017-06-23T12:44:25.485Z,101743.78
2017-06-23T12:46:53.555Z,101732.31
2017-06-23T12:49:19.811Z,101733.47
2017-06-23T12:51:46.061Z,101740.16
2017-06-23T12:54:12.719Z,101735.16
2017-06-23T12:56:38.960Z,101743.74
2017-06-23T12:59:05.205Z,101742.30
2017-06-23T13:01:31.607Z,101728.67
2017-06-23T13:03:57.859Z,101730.17
2017-06-23T13:06:24.105Z,101725.02
2017-06-23T13:08:50.504Z,101736.78
2017-06-23T13:11:16.764Z,101729.30
2017-06-23T13:13:43.001Z,101743.95
2017-06-23T13:17:36.175Z,101739.25
2017-06-23T13:20:04.957Z,101737.44
2017-06-23T13:22:32.511Z,101742.63
2017-06-23T13:24:58.878Z,101738.66
2017-06-23T13:27:25.799Z,101742.41
2017-06-23T13:29:53.231Z,101728.70
2017-06-23T13:32:20.256Z,101737.44
2017-06-23T13:34:47.880Z,101732.78
2017-06-23T13:37:15.015Z,101741.47
2017-06-23T13:39:43.575Z,101736.70
2017-06-23T13:42:10.803Z,101736.39
2017-06-23T13:44:37.066Z,101728.01
2017-06-23T13:47:06.229Z,101730.09
2017-06-23T13:49:33.002Z,101737.64
2017-06-23T13:51:59.252Z,101734.06
2017-06-23T13:54:25.650Z,101735.90
2017-06-23T13:56:51.916Z,101738.65
2017-06-23T13:59:18.162Z,101736.50
2017-06-23T14:01:44.639Z,101737.33
2017-06-23T14:04:11.040Z,101727.70
2017-06-23T14:06:37.296Z,101731.45
2017-06-23T14:09:03.787Z,101739.41
2017-06-23T14:11:30.031Z,101737.59
2017-06-23T14:13:56.264Z,101731.59
2017-06-23T14:17:37.664Z,101722.83
2017-06-23T14:20:03.935Z,101724.23
2017-06-23T14:22:30.197Z,101724.75
2017-06-23T14:24:56.722Z,101732.17
2017-06-23T14:27:23.008Z,101731.41
2017-06-23T14:29:49.288Z,101734.50
2017-06-23T14:32:15.683Z,101732.59
2017-06-23T14:34:41.955Z,101730.06
2017-06-23T14:37:08.213Z,101724.88
2017-06-23T14:39:34.642Z,101725.41
2017-06-23T14:42:02.213Z,101724.54
2017-06-23T14:44:28.610Z,101733.39
2017-06-23T14:46:55.064Z,101720.09
2017-06-23T14:49:24.759Z,101726.94
2017-06-23T14:51:51.055Z,101727.63
2017-06-23T14:54:17.460Z,101729.13
2017-06-23T14:56:43.756Z,101736.11
2017-06-23T15:01:52.500Z,101733.58
2017-06-23T15:04:18.751Z,101739.05
2017-06-23T15:06:45.021Z,101734.28
2017-06-23T15:09:11.460Z,101738.27
2017-06-23T15:11:37.775Z,101734.09
2017-06-23T15:14:04.061Z,101742.31
2017-06-23T15:17:35.645Z,101750.09
2017-06-23T15:20:01.941Z,101739.91
2017-06-23T15:22:28.192Z,101741.09
2017-06-23T15:24:54.587Z,101730.90
2017-06-23T15:27:20.852Z,101731.77
2017-06-23T15:29:47.135Z,101734.86
2017-06-23T15:32:13.532Z,101731.52
2017-06-23T15:34:39.822Z,101735.32
2017-06-23T15:37:06.115Z,101743.40
2017-06-23T15:39:32.539Z,101744.46
2017-06-23T15:41:58.836Z,101740.32
2017-06-23T15:44:25.088Z,101741.44
2017-06-23T15:46:51.490Z,101741.67
2017-06-23T15:49:17.748Z,101751.26
2017-06-23T15:51:44.954Z,101754.92
2017-06-23T15:54:11.359Z,101745.70
2017-06-23T15:56:37.606Z,101743.28
2017-06-23T15:59:03.871Z,101740.53
2017-06-23T16:01:30.500Z,101743.36
2017-06-23T16:03:56.755Z,101737.08
2017-06-23T16:06:23.048Z,101741.61
2017-06-23T16:08:49.463Z,101749.42
2017-06-23T16:11:15.727Z,101743.77
2017-06-23T16:13:41.983Z,101750.72
2017-06-23T16:17:35.235Z,101742.27
2017-06-23T16:20:01.476Z,101738.65
2017-06-23T16:22:27.716Z,101737.14
2017-06-23T16:24:54.459Z,101744.70
2017-06-23T16:27:20.711Z,101743.62
2017-06-23T16:29:47.039Z,101736.62
2017-06-23T16:32:13.480Z,101734.14
2017-06-23T16:34:39.767Z,101732.14
2017-06-23T16:37:06.018Z,101742.91
2017-06-23T16:39:32.482Z,101741.21
2017-06-23T16:42:00.542Z,101736.27
2017-06-23T16:44:26.805Z,101732.42
2017-06-23T16:46:53.175Z,101743.49
2017-06-23T16:49:19.458Z,101748.41
2017-06-23T16:51:47.226Z,101737.56
2017-06-23T16:54:13.619Z,101736.27
2017-06-23T16:56:39.884Z,101751.52
2017-06-23T16:59:06.114Z,101753.95
2017-06-23T17:01:32.547Z,101742.87
2017-06-23T17:03:58.806Z,101741.30
2017-06-23T17:06:25.087Z,101744.27
2017-06-23T17:08:51.527Z,101745.08
2017-06-23T17:11:17.787Z,101742.97
2017-06-23T17:13:44.078Z,101757.92
2017-06-23T17:17:36.604Z,101760.22
2017-06-23T17:20:02.865Z,101764.23
2017-06-23T17:22:29.155Z,101756.29
2017-06-23T17:24:55.843Z,101769.13
2017-06-23T17:27:22.100Z,101763.22
2017-06-23T17:29:48.346Z,101752.98
2017-06-23T17:32:14.743Z,101765.84
2017-06-23T17:34:41.039Z,101761.19
2017-06-23T17:37:07.419Z,101759.13
2017-06-23T17:39:34.067Z,101751.70
2017-06-23T17:42:00.526Z,101746.34
2017-06-23T17:44:26.860Z,101752.23
2017-06-23T17:46:53.369Z,101755.03
2017-06-23T17:49:19.658Z,101757.96
2017-06-23T17:51:46.535Z,101756.69
2017-06-23T17:54:19.723Z,101763.81
2017-06-23T17:56:45.988Z,101765.58
2017-06-23T17:59:12.248Z,101764.59
2017-06-23T18:01:38.668Z,101754.45
2017-06-23T18:04:04.906Z,101757.31
2017-06-23T18:06:31.176Z,101758.06
2017-06-23T18:08:57.552Z,101752.37
2017-06-23T18:11:23.795Z,101764.64
2017-06-23T18:13:50.087Z,101764.67
2017-06-23T18:17:36.826Z,101761.47
2017-06-23T18:20:03.070Z,101763.81
2017-06-23T18:22:29.407Z,101754.45
2017-06-23T18:24:55.807Z,101753.05
2017-06-23T18:27:22.060Z,101761.33
2017-06-23T18:29:48.347Z,101755.01
2017-06-23T18:32:14.749Z,101761.17
2017-06-23T18:34:40.997Z,101756.50
2017-06-23T18:37:07.266Z,101757.80
2017-06-23T18:39:33.690Z,101753.00
2017-06-23T18:41:59.924Z,101765.13
2017-06-23T18:44:26.162Z,101772.73
2017-06-23T18:46:52.602Z,101777.20
2017-06-23T18:49:18.903Z,101770.92
2017-06-23T18:51:45.143Z,101766.50
2017-06-23T18:54:12.477Z,101773.66
2017-06-23T18:56:38.731Z,101770.76
2017-06-23T18:59:04.989Z,101772.33
2017-06-23T19:01:31.503Z,101770.20
2017-06-23T19:03:57.759Z,101770.89
2017-06-23T19:06:24.012Z,101768.63
2017-06-23T19:08:50.406Z,101771.19
2017-06-23T19:11:16.695Z,101780.05
2017-06-23T19:13:42.967Z,101775.20
2017-06-23T19:17:36.195Z,101767.86
2017-06-23T19:20:03.230Z,101779.89
2017-06-23T19:22:29.523Z,101784.95
2017-06-23T19:24:55.959Z,101782.09
2017-06-23T19:27:22.247Z,101784.66
2017-06-23T19:29:48.506Z,101790.62
2017-06-23T19:32:14.935Z,101790.02
2017-06-23T19:34:41.179Z,101793.97
2017-06-23T19:37:07.459Z,101796.52
2017-06-23T19:39:33.874Z,101801.34
2017-06-23T19:42:00.131Z,101800.95
2017-06-23T19:44:26.383Z,101799.89
2017-06-23T19:46:52.804Z,101805.95
2017-06-23T19:49:19.068Z,101801.36
2017-06-23T19:51:45.319Z,101800.06
2017-06-23T19:54:11.742Z,101801.41
2017-06-23T19:56:41.222Z,101807.82
2017-06-23T19:59:07.478Z,101802.19
2017-06-23T20:01:33.928Z,101807.58
2017-06-23T20:04:00.212Z,101803.98
2017-06-23T20:06:26.450Z,101809.66
2017-06-23T20:08:52.851Z,101805.75
2017-06-23T20:11:19.133Z,101811.34
2017-06-23T20:13:45.407Z,101807.45
2017-06-23T20:17:35.802Z,101803.47
2017-06-23T20:20:02.295Z,101808.48
2017-06-23T20:22:28.523Z,101808.72
2017-06-23T20:24:54.927Z,101809.16
2017-06-23T20:27:21.237Z,101802.31
2017-06-23T20:29:47.501Z,101806.65
2017-06-23T20:32:13.903Z,101808.97
2017-06-23T20:34:40.138Z,101800.61
2017-06-23T20:37:06.391Z,101810.97
2017-06-23T20:39:32.794Z,101813.87
2017-06-23T20:41:59.034Z,101810.64
2017-06-23T20:44:25.300Z,101804.25
2017-06-23T20:46:51.711Z,101802.34
2017-06-23T20:49:17.955Z,101811.73
2017-06-23T20:51:44.219Z,101811.55
2017-06-23T20:54:10.615Z,101806.11
2017-06-23T20:56:36.880Z,101807.97
2017-06-23T20:59:04.062Z,101815.01
2017-06-23T21:01:30.465Z,101808.19
2017-06-23T21:03:56.741Z,101810.38
2017-06-23T21:06:22.985Z,101817.20
2017-06-23T21:08:49.427Z,101818.24
2017-06-23T21:11:15.673Z,101816.89
2017-06-23T21:13:41.937Z,101819.55
2017-06-23T21:17:36.155Z,101810.94
2017-06-23T21:20:02.440Z,101819.59
2017-06-23T21:22:28.692Z,101821.28
2017-06-23T21:24:55.107Z,101822.66
2017-06-23T21:27:21.435Z,101826.55
2017-06-23T21:29:47.734Z,101817.51
2017-06-23T21:32:14.126Z,101823.77
2017-06-23T21:34:40.424Z,101822.83
2017-06-23T21:37:06.702Z,101831.58
2017-06-23T21:39:33.930Z,101823.19
2017-06-23T21:42:00.197Z,101821.00
2017-06-23T21:44:26.476Z,101825.17
2017-06-23T21:46:52.858Z,101825.95
2017-06-23T21:49:19.139Z,101825.83
2017-06-23T21:51:45.375Z,101812.77
2017-06-23T21:54:11.796Z,101812.33
2017-06-23T21:56:38.060Z,101816.20
2017-06-23T21:59:05.756Z,101812.70
2017-06-23T22:01:32.158Z,101815.20
2017-06-23T22:03:59.192Z,101811.89
2017-06-23T22:06:25.468Z,101804.10
2017-06-23T22:08:51.953Z,101813.37
2017-06-23T22:11:18.223Z,101811.75
2017-06-23T22:13:44.502Z,101810.73
2017-06-23T22:17:36.095Z,101805.59
2017-06-23T22:20:02.383Z,101811.30
2017-06-23T22:22:28.636Z,101813.57
2017-06-23T22:24:55.020Z,101814.39
2017-06-23T22:27:21.267Z,101806.33
2017-06-23T22:29:47.533Z,101815.55
2017-06-23T22:32:13.950Z,101809.20
2017-06-23T22:34:40.198Z,101811.08
2017-06-23T22:37:06.450Z,101818.26
2017-06-23T22:39:32.945Z,101809.99
2017-06-23T22:41:59.188Z,101806.81
2017-06-23T22:44:25.426Z,101815.55
2017-06-23T22:46:51.840Z,101817.09
2017-06-23T22:49:18.099Z,101811.41
2017-06-23T22:51:44.351Z,101806.37
2017-06-23T22:54:10.829Z,101811.41
2017-06-23T22:56:37.096Z,101803.67
2017-06-23T22:59:03.342Z,101809.92
2017-06-23T23:01:30.441Z,101803.51
2017-06-23T23:03:56.723Z,101787.19
2017-06-23T23:06:22.984Z,101788.84
2017-06-23T23:08:49.350Z,101790.22
2017-06-23T23:11:15.584Z,101790.50
2017-06-23T23:13:41.866Z,101773.25
2017-06-23T23:17:36.605Z,101783.14
2017-06-23T23:20:02.861Z,101781.16
2017-06-23T23:22:29.118Z,101772.34
2017-06-23T23:24:55.523Z,101769.73
2017-06-23T23:27:21.779Z,101774.64
2017-06-23T23:29:48.021Z,101762.56
2017-06-23T23:32:14.461Z,101775.31
2017-06-23T23:34:40.712Z,101775.66
2017-06-23T23:37:06.945Z,101772.50
2017-06-23T23:39:33.359Z,101770.08
2017-06-23T23:41:59.590Z,101768.42
2017-06-23T23:44:25.855Z,101762.83
2017-06-23T23:46:52.247Z,101761.18
2017-06-23T23:49:18.495Z,101769.86
2017-06-23T23:51:44.767Z,101768.63
2017-06-23T23:54:11.183Z,101767.48
2017-06-23T23:56:37.487Z,101777.04
2017-06-23T23:59:03.740Z,101769.02
